createdAt,value
2023-01-17T00:00:18.180Z,715
2023-01-17T00:02:17.515Z,672
2023-01-17T00:04:18.281Z,690
2023-01-17T00:06:17.698Z,670
2023-01-17T00:08:17.310Z,739
2023-01-17T00:10:17.958Z,728
2023-01-17T00:12:17.693Z,701
2023-01-17T00:14:17.319Z,582
2023-01-17T00:16:18.004Z,632
2023-01-17T00:18:17.659Z,710
2023-01-17T00:20:19.957Z,588
2023-01-17T00:22:17.741Z,498
2023-01-17T00:24:17.879Z,573
2023-01-17T00:26:17.447Z,600
2023-01-17T00:28:17.433Z,738
2023-01-17T00:30:17.765Z,665
2023-01-17T00:32:17.411Z,640
2023-01-17T00:34:18.046Z,605
2023-01-17T00:36:17.609Z,716
2023-01-17T00:38:17.188Z,549
2023-01-17T00:40:17.738Z,650
2023-01-17T00:42:17.535Z,545
2023-01-17T00:44:17.538Z,621
2023-01-17T00:46:18.273Z,528
2023-01-17T00:48:17.597Z,585
2023-01-17T00:50:17.271Z,559
2023-01-17T00:52:17.931Z,578
2023-01-17T00:54:19.029Z,564
2023-01-17T00:56:17.746Z,644
2023-01-17T00:58:17.399Z,660
2023-01-17T01:00:18.126Z,591
2023-01-17T01:02:17.784Z,617
2023-01-17T01:04:17.724Z,482
2023-01-17T01:06:17.358Z,618
2023-01-17T01:08:17.395Z,638
2023-01-17T01:10:18.023Z,575
2023-01-17T01:12:17.638Z,509
2023-01-17T01:14:17.483Z,528
2023-01-17T01:16:17.392Z,571
2023-01-17T01:18:18.186Z,573
2023-01-17T01:20:17.805Z,516
2023-01-17T01:22:17.558Z,522
2023-01-17T01:24:17.714Z,643
2023-01-17T01:26:17.609Z,634
2023-01-17T01:28:17.750Z,512
2023-01-17T01:30:17.539Z,574
2023-01-17T01:32:17.621Z,555
2023-01-17T01:34:18.066Z,544
2023-01-17T01:36:17.662Z,661
2023-01-17T01:38:17.287Z,523
2023-01-17T01:40:17.393Z,602
2023-01-17T01:42:18.065Z,559
2023-01-17T01:44:17.645Z,577
2023-01-17T01:46:17.269Z,622
2023-01-17T01:48:17.870Z,669
2023-01-17T01:50:17.428Z,572
2023-01-17T01:52:18.097Z,610
2023-01-17T01:54:17.698Z,551
2023-01-17T01:56:17.300Z,598
2023-01-17T01:58:17.894Z,641
2023-01-17T02:00:17.692Z,532
2023-01-17T02:02:17.385Z,590
2023-01-17T02:04:18.046Z,545
2023-01-17T02:06:18.165Z,553
2023-01-17T02:08:17.807Z,583
2023-01-17T02:10:17.348Z,562
2023-01-17T02:12:17.644Z,657
2023-01-17T02:14:17.884Z,553
2023-01-17T02:16:17.780Z,676
2023-01-17T02:18:17.717Z,671
2023-01-17T02:20:17.395Z,614
2023-01-17T02:22:17.586Z,582
2023-01-17T02:24:17.330Z,641
2023-01-17T02:26:17.940Z,688
2023-01-17T02:28:17.593Z,710
2023-01-17T02:30:17.464Z,502
2023-01-17T02:32:17.564Z,662
2023-01-17T02:34:17.681Z,675
2023-01-17T02:36:17.621Z,662
2023-01-17T02:38:18.079Z,640
2023-01-17T02:40:18.093Z,596
2023-01-17T02:42:18.184Z,605
2023-01-17T02:44:17.829Z,660
2023-01-17T02:46:17.478Z,622
2023-01-17T02:48:18.114Z,726
2023-01-17T02:50:17.726Z,632
2023-01-17T02:52:17.288Z,610
2023-01-17T02:54:17.743Z,605
2023-01-17T02:56:17.865Z,701
2023-01-17T02:58:17.637Z,680
2023-01-17T03:00:17.625Z,693
2023-01-17T03:02:17.813Z,655
2023-01-17T03:04:17.698Z,651
2023-01-17T03:06:17.613Z,678
2023-01-17T03:08:17.708Z,672
2023-01-17T03:10:17.284Z,609
2023-01-17T03:12:18.062Z,685
2023-01-17T03:14:17.685Z,582
2023-01-17T03:16:17.655Z,641
2023-01-17T03:18:17.382Z,675
2023-01-17T03:20:19.042Z,659
2023-01-17T03:22:17.723Z,660
2023-01-17T03:24:17.403Z,585
2023-01-17T03:26:18.013Z,689
2023-01-17T03:28:17.615Z,669
2023-01-17T03:30:17.196Z,567
2023-01-17T03:32:17.840Z,577
2023-01-17T03:34:17.446Z,613
2023-01-17T03:36:18.115Z,574
2023-01-17T03:38:17.775Z,532
2023-01-17T03:40:17.454Z,614
2023-01-17T03:42:17.346Z,524
2023-01-17T03:44:17.961Z,556
2023-01-17T03:46:17.676Z,619
2023-01-17T03:48:17.769Z,538
2023-01-17T03:50:17.309Z,535
2023-01-17T03:52:18.295Z,594
2023-01-17T03:54:18.159Z,548
2023-01-17T03:56:17.731Z,464
2023-01-17T03:58:17.425Z,605
2023-01-17T04:00:18.018Z,628
2023-01-17T04:02:17.754Z,535
2023-01-17T04:04:17.729Z,629
2023-01-17T04:06:17.681Z,606
2023-01-17T04:08:17.979Z,534
2023-01-17T04:10:17.619Z,666
2023-01-17T04:12:17.255Z,657
2023-01-17T04:14:17.288Z,551
2023-01-17T04:16:18.042Z,601
2023-01-17T04:18:17.861Z,584
2023-01-17T04:20:17.500Z,607
2023-01-17T04:22:17.316Z,538
2023-01-17T04:24:18.081Z,653
2023-01-17T04:26:17.683Z,547
2023-01-17T04:28:17.317Z,662
2023-01-17T04:30:17.936Z,679
2023-01-17T04:32:17.591Z,563
2023-01-17T04:34:18.149Z,571
2023-01-17T04:36:17.754Z,544
2023-01-17T04:38:17.362Z,648
2023-01-17T04:40:18.228Z,610
2023-01-17T04:42:17.951Z,637
2023-01-17T04:44:17.627Z,596
2023-01-17T04:46:17.357Z,626
2023-01-17T04:48:18.042Z,579
2023-01-17T04:50:17.657Z,631
2023-01-17T04:52:17.321Z,604
2023-01-17T04:54:17.991Z,630
2023-01-17T04:56:17.608Z,582
2023-01-17T04:58:17.256Z,678
2023-01-17T05:00:17.788Z,701
2023-01-17T05:02:17.456Z,622
2023-01-17T05:04:18.046Z,664
2023-01-17T05:06:17.689Z,650
2023-01-17T05:08:17.327Z,652
2023-01-17T05:10:18.066Z,691
2023-01-17T05:12:17.763Z,666
2023-01-17T05:14:17.427Z,543
2023-01-17T05:16:17.363Z,588
2023-01-17T05:18:17.487Z,619
2023-01-17T05:20:18.099Z,653
2023-01-17T05:22:17.679Z,670
2023-01-17T05:24:17.311Z,614
2023-01-17T05:26:17.461Z,689
2023-01-17T05:28:17.570Z,665
2023-01-17T05:30:18.165Z,564
2023-01-17T05:32:17.744Z,599
2023-01-17T05:34:17.361Z,621
2023-01-17T05:36:19.209Z,642
2023-01-17T05:38:17.975Z,737
2023-01-17T05:40:17.566Z,685
2023-01-17T05:42:18.189Z,623
2023-01-17T05:44:17.832Z,670
2023-01-17T05:46:17.528Z,635
2023-01-17T05:48:18.217Z,616
2023-01-17T05:50:17.818Z,595
2023-01-17T05:52:17.209Z,604
2023-01-17T05:54:17.768Z,710
2023-01-17T05:56:17.357Z,660
2023-01-17T05:58:17.379Z,718
2023-01-17T06:00:17.361Z,689
2023-01-17T06:02:17.361Z,617
2023-01-17T06:04:17.380Z,625
2023-01-17T06:06:17.340Z,696
2023-01-17T06:08:17.380Z,589
2023-01-17T06:10:17.345Z,666
2023-01-17T06:12:18.039Z,641
2023-01-17T06:14:17.713Z,704
2023-01-17T06:16:17.313Z,627
2023-01-17T06:18:18.135Z,705
2023-01-17T06:20:17.746Z,678
2023-01-17T06:22:17.404Z,751
2023-01-17T06:24:18.452Z,694
2023-01-17T06:26:18.099Z,684
2023-01-17T06:28:17.728Z,700
2023-01-17T06:30:17.342Z,754
2023-01-17T06:32:18.015Z,699
2023-01-17T06:34:17.599Z,708
2023-01-17T06:36:17.321Z,676
2023-01-17T06:38:18.049Z,634
2023-01-17T06:40:17.595Z,782
2023-01-17T06:42:17.224Z,717
2023-01-17T06:44:17.830Z,707
2023-01-17T06:46:17.432Z,655
2023-01-17T06:48:18.076Z,718
2023-01-17T06:50:17.731Z,749
2023-01-17T06:52:17.270Z,606
2023-01-17T06:54:17.841Z,644
2023-01-17T06:56:17.381Z,736
2023-01-17T06:58:18.022Z,709
2023-01-17T07:00:18.151Z,653
2023-01-17T07:02:17.359Z,648
2023-01-17T07:04:17.457Z,733
2023-01-17T07:06:17.497Z,706
2023-01-17T07:08:17.353Z,645
2023-01-17T07:10:17.419Z,734
2023-01-17T07:12:17.307Z,621
2023-01-17T07:14:17.230Z,604
2023-01-17T07:16:17.857Z,697
2023-01-17T07:18:17.568Z,675
2023-01-17T07:20:18.274Z,664
2023-01-17T07:22:17.317Z,767
2023-01-17T07:24:17.316Z,644
2023-01-17T07:26:17.381Z,749
2023-01-17T07:28:17.377Z,751
2023-01-17T07:30:17.357Z,667
2023-01-17T07:32:18.038Z,716
2023-01-17T07:34:17.319Z,794
2023-01-17T07:36:17.918Z,741
2023-01-17T07:38:17.353Z,734
2023-01-17T07:40:17.977Z,804
2023-01-17T07:42:17.581Z,750
2023-01-17T07:44:18.158Z,777
2023-01-17T07:46:17.922Z,770
2023-01-17T07:48:17.776Z,830
2023-01-17T07:50:17.368Z,836
2023-01-17T07:52:18.319Z,857
2023-01-17T07:54:17.325Z,766
2023-01-17T07:56:17.976Z,755
2023-01-17T07:58:17.867Z,816
2023-01-17T08:00:17.486Z,819
2023-01-17T08:02:17.234Z,883
2023-01-17T08:04:17.947Z,743
2023-01-17T08:06:17.547Z,766
2023-01-17T08:08:18.195Z,730
2023-01-17T08:10:17.845Z,817
2023-01-17T08:12:17.560Z,839
2023-01-17T08:14:18.208Z,704
2023-01-17T08:16:18.124Z,858
2023-01-17T08:18:17.317Z,854
2023-01-17T08:20:17.890Z,775
2023-01-17T08:22:17.279Z,839
2023-01-17T08:24:17.868Z,816
2023-01-17T08:26:17.914Z,823
2023-01-17T08:28:17.547Z,801
2023-01-17T08:30:17.309Z,750
2023-01-17T08:32:17.318Z,788
2023-01-17T08:34:17.311Z,840
2023-01-17T08:36:17.350Z,801
2023-01-17T08:38:17.432Z,918
2023-01-17T08:40:18.105Z,842
2023-01-17T08:42:17.723Z,846
2023-01-17T08:44:17.350Z,881
2023-01-17T08:46:18.037Z,854
2023-01-17T08:48:17.681Z,842
2023-01-17T08:50:17.286Z,801
2023-01-17T08:52:17.896Z,790
2023-01-17T08:54:17.491Z,674
2023-01-17T08:56:18.039Z,822
2023-01-17T08:58:17.646Z,808
2023-01-17T09:00:17.432Z,734
2023-01-17T09:02:18.092Z,849
2023-01-17T09:04:17.766Z,889
2023-01-17T09:06:18.196Z,832
2023-01-17T09:08:17.720Z,718
2023-01-17T09:10:18.184Z,903
2023-01-17T09:12:17.255Z,915
2023-01-17T09:14:17.558Z,907
2023-01-17T09:16:17.314Z,892
2023-01-17T09:18:18.059Z,871
2023-01-17T09:20:17.345Z,837
2023-01-17T09:22:17.927Z,850
2023-01-17T09:24:18.137Z,886
2023-01-17T09:26:18.197Z,758
2023-01-17T09:28:17.391Z,910
2023-01-17T09:30:18.067Z,895
2023-01-17T09:32:17.676Z,866
2023-01-17T09:34:17.287Z,891
2023-01-17T09:36:17.858Z,830
2023-01-17T09:38:17.776Z,829
2023-01-17T09:40:17.397Z,792
2023-01-17T09:42:18.048Z,804
2023-01-17T09:44:17.840Z,824
2023-01-17T09:46:17.915Z,910
2023-01-17T09:48:17.511Z,756
2023-01-17T09:50:17.487Z,774
2023-01-17T09:52:18.083Z,892
2023-01-17T09:54:17.435Z,799
2023-01-17T09:56:18.099Z,865
2023-01-17T09:58:17.360Z,842
2023-01-17T10:00:17.967Z,819
2023-01-17T10:02:17.624Z,765
2023-01-17T10:04:17.490Z,872
2023-01-17T10:06:18.098Z,864
2023-01-17T10:08:17.773Z,824
2023-01-17T10:10:17.330Z,838
2023-01-17T10:12:18.027Z,819
2023-01-17T10:14:17.326Z,922
2023-01-17T10:16:18.085Z,838
2023-01-17T10:18:29.057Z,826
2023-01-17T10:20:17.362Z,695
2023-01-17T10:22:18.050Z,882
2023-01-17T10:24:17.385Z,928
2023-01-17T10:26:17.998Z,893
2023-01-17T10:28:17.697Z,764
2023-01-17T10:30:17.700Z,850
2023-01-17T10:32:17.313Z,872
2023-01-17T10:34:17.892Z,854
2023-01-17T10:36:17.517Z,723
2023-01-17T10:38:17.980Z,916
2023-01-17T10:40:17.835Z,775
2023-01-17T10:42:17.431Z,724
2023-01-17T10:44:18.078Z,689
2023-01-17T10:46:17.477Z,864
2023-01-17T10:48:18.181Z,859
2023-01-17T10:50:17.856Z,854
2023-01-17T10:52:17.508Z,743
2023-01-17T10:54:18.181Z,724
2023-01-17T10:56:17.776Z,844
2023-01-17T10:58:17.372Z,788
2023-01-17T11:00:18.044Z,875
2023-01-17T11:02:18.392Z,756
2023-01-17T11:04:18.071Z,840
2023-01-17T11:06:17.892Z,723
2023-01-17T11:08:17.820Z,842
2023-01-17T11:10:17.495Z,838
2023-01-17T11:12:18.063Z,834
2023-01-17T11:14:17.638Z,865
2023-01-17T11:50:27.704Z,450
2023-01-17T11:50:44.464Z,501
2023-01-17T11:52:18.231Z,450
2023-01-17T11:54:17.333Z,450
2023-01-17T11:56:18.005Z,450
2023-01-17T11:58:17.386Z,547
2023-01-17T12:00:18.026Z,509
2023-01-17T12:02:17.320Z,530
2023-01-17T12:04:17.943Z,546
2023-01-17T12:06:17.671Z,502
2023-01-17T12:08:17.330Z,582
2023-01-17T12:10:17.965Z,560
2023-01-17T12:12:17.619Z,542
2023-01-17T12:14:17.146Z,550
2023-01-17T12:16:17.882Z,499
2023-01-17T12:18:17.426Z,581
2023-01-17T12:20:18.097Z,554
2023-01-17T12:22:17.258Z,506
2023-01-17T12:24:17.845Z,574
2023-01-17T12:26:17.546Z,547
2023-01-17T12:28:18.222Z,508
2023-01-17T12:30:17.576Z,544
2023-01-17T12:32:17.195Z,511
2023-01-17T12:34:17.909Z,509
2023-01-17T12:36:17.689Z,591
2023-01-17T12:38:27.626Z,568
2023-01-17T12:40:18.199Z,540
2023-01-17T12:42:17.813Z,558
2023-01-17T12:44:17.496Z,570
2023-01-17T12:46:18.040Z,541
2023-01-17T12:48:17.642Z,566
2023-01-17T12:50:17.258Z,520
2023-01-17T12:52:17.969Z,494
2023-01-17T12:54:17.785Z,479
2023-01-17T12:56:17.548Z,582
2023-01-17T12:58:18.152Z,529
2023-01-17T13:00:17.700Z,557
2023-01-17T13:02:17.391Z,542
2023-01-17T13:04:17.995Z,533
2023-01-17T13:06:17.617Z,538
2023-01-17T13:08:17.198Z,524
2023-01-17T13:10:17.946Z,541
2023-01-17T13:12:17.583Z,519
2023-01-17T13:14:18.209Z,598
2023-01-17T13:16:18.153Z,557
2023-01-17T13:18:17.945Z,561
2023-01-17T13:20:17.609Z,564
2023-01-17T13:22:17.321Z,553
2023-01-17T13:24:17.937Z,550
2023-01-17T13:26:17.603Z,538
2023-01-17T13:28:17.980Z,514
2023-01-17T13:30:17.932Z,664
2023-01-17T13:32:17.876Z,612
2023-01-17T13:34:17.591Z,586
2023-01-17T13:36:18.174Z,552
2023-01-17T13:38:17.970Z,618
2023-01-17T13:40:18.019Z,522
2023-01-17T13:42:17.293Z,546
2023-01-17T13:44:18.003Z,552
2023-01-17T13:46:17.902Z,561
2023-01-17T13:48:17.796Z,659
2023-01-17T13:50:17.946Z,740
2023-01-17T13:52:17.951Z,663
2023-01-17T13:54:17.985Z,593
2023-01-17T13:56:17.868Z,524
2023-01-17T13:58:17.975Z,514
2023-01-17T14:00:17.812Z,556
2023-01-17T14:02:17.442Z,553
2023-01-17T14:04:18.044Z,620
2023-01-17T14:06:17.687Z,570
2023-01-17T14:08:17.653Z,606
2023-01-17T14:10:17.254Z,530
2023-01-17T14:12:17.896Z,581
2023-01-17T14:14:17.525Z,702
2023-01-17T14:16:17.393Z,858
2023-01-17T14:18:18.172Z,799
2023-01-17T14:20:17.805Z,582
2023-01-17T14:22:17.477Z,634
2023-01-17T14:24:17.384Z,625
2023-01-17T14:26:17.502Z,861
2023-01-17T14:28:17.313Z,594
2023-01-17T14:30:17.367Z,564
2023-01-17T14:32:17.485Z,610
2023-01-17T14:34:17.472Z,616
2023-01-17T14:36:17.356Z,623
2023-01-17T14:38:17.946Z,637
2023-01-17T14:40:17.594Z,569
2023-01-17T14:42:17.854Z,539
2023-01-17T14:44:17.459Z,664
2023-01-17T14:46:17.425Z,1135
2023-01-17T14:48:17.544Z,1068
2023-01-17T14:50:17.404Z,1099
2023-01-17T14:52:17.546Z,1162
2023-01-17T14:54:17.532Z,1109
2023-01-17T14:56:17.422Z,841
2023-01-17T14:58:17.479Z,811
2023-01-17T15:00:17.367Z,789
2023-01-17T15:02:17.581Z,918
2023-01-17T15:04:17.353Z,683
2023-01-17T15:06:17.394Z,0
2023-01-17T15:08:17.960Z,845
2023-01-17T15:10:17.469Z,662
2023-01-17T15:12:18.352Z,701
2023-01-17T15:14:17.933Z,650
2023-01-17T15:16:17.494Z,659
2023-01-17T15:18:17.257Z,554
2023-01-17T15:20:17.844Z,844
2023-01-17T15:22:17.583Z,729
2023-01-17T15:24:17.230Z,768
2023-01-17T15:26:17.828Z,1090
2023-01-17T15:28:17.449Z,883
2023-01-17T15:30:18.120Z,771
2023-01-17T15:32:17.778Z,873
2023-01-17T15:34:17.733Z,744
2023-01-17T15:36:17.368Z,918
2023-01-17T15:38:18.308Z,1212
2023-01-17T15:40:17.708Z,896
2023-01-17T15:42:17.302Z,788
2023-01-17T15:44:17.895Z,879
2023-01-17T15:46:17.515Z,875
2023-01-17T15:48:18.195Z,827
2023-01-17T15:50:17.785Z,877
2023-01-17T15:52:17.445Z,667
2023-01-17T15:54:18.083Z,752
2023-01-17T15:56:17.712Z,702
2023-01-17T15:58:17.268Z,793
2023-01-17T16:00:17.970Z,787
2023-01-17T16:02:18.097Z,849
2023-01-17T16:04:17.815Z,802
2023-01-17T16:06:17.823Z,947
2023-01-17T16:08:18.165Z,874
2023-01-17T16:10:17.895Z,681
2023-01-17T16:12:18.100Z,761
2023-01-17T16:14:17.948Z,729
2023-01-17T16:16:18.076Z,745
2023-01-17T16:18:18.042Z,732
2023-01-17T16:20:17.953Z,716
2023-01-17T16:22:17.805Z,722
2023-01-17T16:24:17.369Z,727
2023-01-17T16:26:18.031Z,672
2023-01-17T16:28:17.907Z,647
2023-01-17T16:30:17.986Z,765
2023-01-17T16:32:18.095Z,669
2023-01-17T16:34:17.676Z,709
2023-01-17T16:36:17.299Z,572
2023-01-17T16:38:17.914Z,584
2023-01-17T16:40:17.483Z,678
2023-01-17T16:42:18.180Z,725
2023-01-17T16:44:17.763Z,654
2023-01-17T16:46:17.417Z,649
2023-01-17T16:48:19.266Z,722
2023-01-17T16:50:17.953Z,589
2023-01-17T16:52:17.593Z,678
2023-01-17T16:54:18.235Z,534
2023-01-17T16:56:17.798Z,655
2023-01-17T16:58:17.676Z,548
2023-01-17T17:00:17.607Z,583
2023-01-17T17:02:17.239Z,595
2023-01-17T17:04:17.885Z,601
2023-01-17T17:06:17.414Z,635
2023-01-17T17:08:18.004Z,619
2023-01-17T17:10:17.635Z,622
2023-01-17T17:12:17.258Z,564
2023-01-17T17:14:17.808Z,680
2023-01-17T17:16:17.562Z,522
2023-01-17T17:18:17.345Z,513
2023-01-17T17:20:17.881Z,517
2023-01-17T17:22:17.536Z,572
2023-01-17T17:24:18.153Z,589
2023-01-17T17:26:18.013Z,491
2023-01-17T17:28:17.657Z,543
2023-01-17T17:30:17.260Z,489
2023-01-17T17:32:17.966Z,578
2023-01-17T17:34:17.616Z,504
2023-01-17T17:36:17.187Z,450
2023-01-17T17:38:17.714Z,558
2023-01-17T17:40:17.328Z,584
2023-01-17T17:42:17.976Z,608
2023-01-17T17:44:17.545Z,597
2023-01-17T17:46:17.425Z,620
2023-01-17T17:48:18.017Z,550
2023-01-17T17:50:17.739Z,597
2023-01-17T17:52:17.351Z,628
2023-01-17T17:54:17.957Z,553
2023-01-17T17:56:17.503Z,519
2023-01-17T17:58:18.375Z,544
2023-01-17T18:00:17.995Z,559
2023-01-17T18:02:17.670Z,556
2023-01-17T18:04:17.293Z,540
2023-01-17T18:06:17.892Z,560
2023-01-17T18:08:17.482Z,659
2023-01-17T18:10:18.075Z,594
2023-01-17T18:12:17.697Z,555
2023-01-17T18:14:17.448Z,537
2023-01-17T18:16:18.124Z,525
2023-01-17T18:18:17.924Z,572
2023-01-17T18:20:17.541Z,504
2023-01-17T18:22:18.193Z,479
2023-01-17T18:24:17.829Z,563
2023-01-17T18:26:17.425Z,591
2023-01-17T18:28:17.953Z,515
2023-01-17T18:30:17.550Z,497
2023-01-17T18:32:18.221Z,588
2023-01-17T18:34:17.820Z,491
2023-01-17T18:36:17.438Z,570
2023-01-17T18:38:17.973Z,503
2023-01-17T18:40:17.597Z,557
2023-01-17T18:42:17.283Z,633
2023-01-17T18:44:19.732Z,606
2023-01-17T18:46:17.524Z,557
2023-01-17T18:48:18.162Z,560
2023-01-17T18:50:18.003Z,617
2023-01-17T18:52:17.612Z,572
2023-01-17T18:54:17.280Z,637
2023-01-17T18:56:17.414Z,450
2023-01-17T18:58:17.363Z,573
2023-01-17T19:00:17.310Z,612
2023-01-17T19:02:17.977Z,606
2023-01-17T19:04:17.797Z,621
2023-01-17T19:06:17.414Z,669
2023-01-17T19:08:18.067Z,609
2023-01-17T19:10:17.705Z,567
2023-01-17T19:12:18.315Z,596
2023-01-17T19:14:17.620Z,548
2023-01-17T19:16:17.855Z,624
2023-01-17T19:18:17.629Z,643
2023-01-17T19:20:17.233Z,623
2023-01-17T19:22:17.815Z,574
2023-01-17T19:24:17.379Z,559
2023-01-17T19:26:18.024Z,644
2023-01-17T19:28:17.620Z,569
2023-01-17T19:30:17.237Z,528
2023-01-17T19:32:17.859Z,523
2023-01-17T19:34:17.544Z,602
2023-01-17T19:36:18.078Z,571
2023-01-17T19:38:17.659Z,617
2023-01-17T19:40:17.252Z,588
2023-01-17T19:42:17.892Z,573
2023-01-17T19:44:17.466Z,541
2023-01-17T19:46:18.819Z,625
2023-01-17T19:48:17.592Z,573
2023-01-17T19:50:17.407Z,513
2023-01-17T19:52:17.364Z,616
2023-01-17T19:54:17.283Z,634
2023-01-17T19:56:17.554Z,640
2023-01-17T19:58:17.341Z,624
2023-01-17T20:00:17.410Z,558
2023-01-17T20:02:17.599Z,611
2023-01-17T20:04:17.500Z,636
2023-01-17T20:06:17.231Z,598
2023-01-17T20:08:17.713Z,602
2023-01-17T20:10:17.306Z,542
2023-01-17T20:12:17.987Z,547
2023-01-17T20:14:17.588Z,605
2023-01-17T20:16:18.146Z,510
2023-01-17T20:18:17.306Z,621
2023-01-17T20:20:17.874Z,673
2023-01-17T20:22:17.565Z,544
2023-01-17T20:24:18.151Z,569
2023-01-17T20:26:17.797Z,589
2023-01-17T20:28:17.408Z,613
2023-01-17T20:30:20.306Z,571
2023-01-17T20:32:17.256Z,593
2023-01-17T20:34:17.842Z,569
2023-01-17T20:36:17.568Z,574
2023-01-17T20:38:17.604Z,581
2023-01-17T20:40:17.177Z,594
2023-01-17T20:42:17.816Z,689
2023-01-17T20:44:17.475Z,654
2023-01-17T20:46:18.083Z,606
2023-01-17T20:48:17.425Z,635
2023-01-17T20:50:18.056Z,594
2023-01-17T20:52:17.787Z,626
2023-01-17T20:54:17.445Z,622
2023-01-17T20:56:18.372Z,591
2023-01-17T20:58:17.994Z,652
2023-01-17T21:00:17.622Z,693
2023-01-17T21:02:18.369Z,666
2023-01-17T21:04:18.069Z,601
2023-01-17T21:06:17.731Z,698
2023-01-17T21:08:18.640Z,681
2023-01-17T21:10:17.281Z,779
2023-01-17T21:12:17.257Z,611
2023-01-17T21:14:17.823Z,680
2023-01-17T21:16:17.359Z,757
2023-01-17T21:18:18.138Z,712
2023-01-17T21:20:17.353Z,676
2023-01-17T21:22:18.052Z,657
2023-01-17T21:24:17.667Z,743
2023-01-17T21:26:22.242Z,656
2023-01-17T21:28:17.897Z,647
2023-01-17T21:30:18.053Z,641
2023-01-17T21:32:17.649Z,645
2023-01-17T21:34:17.192Z,594
2023-01-17T21:36:17.765Z,617
2023-01-17T21:38:17.736Z,764
2023-01-17T21:40:17.362Z,687
2023-01-17T21:42:18.064Z,683
2023-01-17T21:44:17.750Z,749
2023-01-17T21:46:17.402Z,649
2023-01-17T21:48:18.067Z,450
2023-01-17T21:50:32.379Z,618
2023-01-17T21:52:17.336Z,627
2023-01-17T21:54:17.902Z,624
2023-01-17T21:56:17.525Z,678
2023-01-17T21:58:17.436Z,706
2023-01-17T22:00:18.090Z,678
2023-01-17T22:02:17.725Z,664
2023-01-17T22:04:17.339Z,668
2023-01-17T22:06:17.385Z,703
2023-01-17T22:08:17.306Z,684
2023-01-17T22:10:17.270Z,698
2023-01-17T22:12:17.615Z,720
2023-01-17T22:14:17.194Z,676
2023-01-17T22:16:18.219Z,773
2023-01-17T22:18:17.986Z,786
2023-01-17T22:20:19.120Z,821
2023-01-17T22:22:17.333Z,764
2023-01-17T22:24:17.458Z,755
2023-01-17T22:26:17.385Z,622
2023-01-17T22:28:17.276Z,675
2023-01-17T22:30:17.900Z,709
2023-01-17T22:32:17.533Z,779
2023-01-17T22:34:18.130Z,809
2023-01-17T22:36:17.705Z,770
2023-01-17T22:38:17.929Z,858
2023-01-17T22:40:17.925Z,844
2023-01-17T22:42:18.077Z,814
2023-01-17T22:44:18.129Z,802
2023-01-17T22:46:17.775Z,774
2023-01-17T22:48:17.487Z,740
2023-01-17T22:50:17.551Z,798
2023-01-17T22:52:17.499Z,735
2023-01-17T22:54:17.519Z,709
2023-01-17T22:56:17.455Z,734
2023-01-17T22:58:18.088Z,685
2023-01-17T23:00:20.492Z,832
2023-01-17T23:02:17.349Z,787
2023-01-17T23:04:18.030Z,820
2023-01-17T23:06:17.644Z,696
2023-01-17T23:08:17.272Z,722
2023-01-17T23:10:17.906Z,783
2023-01-17T23:12:17.488Z,770
2023-01-17T23:14:18.107Z,683
2023-01-17T23:16:17.777Z,676
2023-01-17T23:18:17.514Z,683
2023-01-17T23:20:17.993Z,730
2023-01-17T23:22:18.152Z,660
2023-01-17T23:42:17.647Z,534
2023-01-17T23:44:17.316Z,632
2023-01-17T23:46:17.987Z,588
2023-01-17T23:48:17.580Z,507
2023-01-17T23:50:18.204Z,595
2023-01-17T23:52:17.987Z,557
2023-01-17T23:54:17.547Z,551
2023-01-17T23:56:18.147Z,561
2023-01-17T23:58:17.773Z,519
